INFORMACIÓN METAR y TAF
METAR FOR LELO
ADDS - METARS form results

(0423 UTC 22 July 2019)
Data provider http://aviationweather.gov/metar/data/
 
METAR text: LELO 220400Z 28003KT 250V320 9999 FEW050 21/19 Q1022
Conditions at: LELO (LOGRONO/AGONCILL, ES) observed 0400 UTC 22 July 2019
Temperature: 21.0°C (70°F)
Dewpoint: 19.0°C (66°F) [RH = 88%]
Pressure (altimeter): 30.18 inches Hg (1022.0 mb)
Winds: from the W (280 degrees) at 3 MPH (3 knots; 1.5 m/s)
Visibility: 6 or more miles (10+ km)
Ceiling: at least 12,000 feet AGL
Clouds: few clouds at 5000 feet AGL
Weather: no significant weather observed at this time

METAR text: LELO 220330Z AUTO 24004KT CAVOK 22/19 Q1022
Conditions at: LELO (LOGRONO/AGONCILL, ES) observed 0330 UTC 22 July 2019
Temperature: 22.0°C (72°F)
Dewpoint: 19.0°C (66°F) [RH = 83%]
Pressure (altimeter): 30.18 inches Hg (1022.0 mb)
Winds: from the WSW (240 degrees) at 5 MPH (4 knots; 2.1 m/s)
Visibility: 6 or more miles (10+ km)
Ceiling: ceiling and visibility are OK
Clouds: unknown
Weather: no significant weather observed at this time

Forecast for: LELO (LOGRONO/AGONCILL, ES)
Text: TAF LELO 220200Z 2203/2212 VRB05KT CAVOK
Forecast period: 0300 to 0800 UTC 22 July 2019
Forecast type: FROM: standard forecast or significant change
Winds: variable direction winds at 6 MPH (5 knots; 2.6 m/s)
Visibility: 6 or more miles 10+ km)
Ceiling: unknown
Clouds: missing
Weather: NSW  (no significant weather)
Text: BECMG 2208/2210 10010KT
Forecast period: 0800 to 1200 UTC 22 July 2019
Forecast type: BECOMING: Conditions expected to become as follows by 1000 UTC 22 July 2019
Winds: from the E (100 degrees) at 12 MPH (10 knots; 5.1 m/s)
Visibility: 6 or more miles 10+ km)
Ceiling: unknown
Clouds: missing
Weather: NSW  (no significant weather)

 MAPA DE AEROPUERTO

 INFORMACIÓN DE PISTA

 FRECUANCIAS DEL AEROPUERTO

 RADIO AYUDAS DEL AEROPUERTO
Tipo NDB Nombre Logrono Frecuencia 399 KHZ




Powered by Virtual Airlines Manager